createdAt,value
2022-09-28T00:00:54.704Z,2.33
2022-09-28T00:03:26.334Z,2.40
2022-09-28T00:06:06.271Z,2.40
2022-09-28T00:08:37.647Z,6.50
2022-09-28T00:11:13.673Z,2.50
2022-09-28T00:13:48.336Z,2.25
2022-09-28T00:16:23.056Z,3.33
2022-09-28T00:18:55.299Z,2.73
2022-09-28T00:21:29.860Z,2.73
2022-09-28T00:24:25.271Z,2.63
2022-09-28T00:27:01.369Z,3.47
2022-09-28T00:29:35.275Z,3.20
2022-09-28T00:32:10.416Z,3.50
2022-09-28T00:34:45.783Z,3.47
2022-09-28T00:37:19.092Z,2.97
2022-09-28T00:39:50.602Z,3.20
2022-09-28T00:42:26.177Z,2.53
2022-09-28T00:44:58.933Z,3.42
2022-09-28T00:47:41.417Z,3.10
2022-09-28T00:50:30.054Z,3.13
2022-09-28T00:53:09.397Z,4.23
2022-09-28T00:55:46.512Z,3.63
2022-09-28T00:58:27.418Z,3.37
2022-09-28T01:00:59.941Z,3.00
2022-09-28T01:03:33.590Z,3.23
2022-09-28T01:06:07.428Z,3.77
2022-09-28T01:08:39.593Z,3.37
2022-09-28T01:11:10.855Z,3.43
2022-09-28T01:13:43.313Z,3.80
2022-09-28T01:16:26.924Z,3.90
2022-09-28T01:19:26.154Z,4.00
2022-09-28T01:22:27.447Z,5.10
2022-09-28T01:25:29.340Z,3.90
2022-09-28T01:28:28.758Z,3.63
2022-09-28T01:31:20.299Z,3.97
2022-09-28T01:33:58.789Z,4.27
2022-09-28T01:36:36.800Z,4.10
2022-09-28T01:39:16.538Z,6.00
2022-09-28T01:41:52.312Z,6.17
2022-09-28T01:44:25.938Z,4.15
2022-09-28T01:47:03.548Z,4.00
2022-09-28T01:49:41.208Z,4.13
2022-09-28T01:52:30.429Z,3.63
2022-09-28T01:55:07.773Z,4.53
2022-09-28T01:57:57.833Z,3.80
2022-09-28T02:00:29.385Z,4.07
2022-09-28T02:03:08.923Z,4.27
2022-09-28T02:05:47.002Z,4.07
2022-09-28T02:08:26.890Z,4.00
2022-09-28T02:11:05.881Z,3.97
2022-09-28T02:13:40.762Z,4.47
2022-09-28T02:16:41.297Z,4.63
2022-09-28T02:19:17.230Z,4.83
2022-09-28T02:22:07.173Z,5.22
2022-09-28T02:24:52.001Z,5.40
2022-09-28T02:27:34.638Z,5.97
2022-09-28T02:30:07.680Z,7.10
2022-09-28T02:32:42.981Z,9.23
2022-09-28T02:35:17.288Z,12.10
2022-09-28T02:37:49.752Z,6.70
2022-09-28T02:40:25.268Z,8.50
2022-09-28T02:43:15.390Z,12.88
2022-09-28T02:46:16.413Z,12.90
2022-09-28T02:49:27.633Z,12.77
2022-09-28T02:52:28.284Z,8.73
2022-09-28T02:55:05.413Z,8.93
2022-09-28T02:58:15.816Z,11.57
2022-09-28T03:01:21.424Z,12.83
2022-09-28T03:04:27.233Z,8.97
2022-09-28T03:07:05.920Z,8.37
2022-09-28T03:09:42.464Z,7.13
2022-09-28T03:12:17.690Z,7.53
2022-09-28T03:15:05.923Z,7.67
2022-09-28T03:17:38.039Z,8.57
2022-09-28T03:20:10.671Z,7.63
2022-09-28T03:22:42.175Z,9.20
2022-09-28T03:25:14.716Z,6.70
2022-09-28T03:27:46.240Z,5.43
2022-09-28T03:30:17.606Z,6.47
2022-09-28T03:32:58.055Z,6.10
2022-09-28T03:35:29.316Z,9.10
2022-09-28T03:38:00.649Z,7.90
2022-09-28T03:40:32.080Z,6.50
2022-09-28T03:43:03.406Z,8.93
2022-09-28T03:45:34.692Z,7.00
2022-09-28T03:48:06.036Z,7.53
2022-09-28T03:50:37.277Z,6.30
2022-09-28T03:53:08.716Z,8.43
2022-09-28T03:55:39.944Z,6.40
2022-09-28T03:58:11.246Z,7.07
2022-09-28T04:00:42.627Z,6.40
2022-09-28T04:03:14.039Z,9.67
2022-09-28T04:05:52.841Z,6.70
2022-09-28T04:08:24.278Z,10.20
2022-09-28T04:10:57.666Z,8.60
2022-09-28T04:13:30.118Z,11.07
2022-09-28T04:16:01.897Z,10.23
2022-09-28T04:18:33.664Z,13.40
2022-09-28T04:21:07.159Z,11.53
2022-09-28T04:23:39.998Z,12.80
2022-09-28T04:26:20.808Z,12.33
2022-09-28T04:29:10.892Z,8.17
2022-09-28T04:31:46.714Z,10.93
2022-09-28T04:34:20.598Z,8.57
2022-09-28T04:36:55.068Z,8.33
2022-09-28T04:39:26.307Z,14.23
2022-09-28T04:41:57.570Z,16.63
2022-09-28T04:44:28.861Z,8.63
2022-09-28T04:47:04.831Z,13.20
2022-09-28T04:49:38.233Z,12.50
2022-09-28T04:52:09.533Z,12.13
2022-09-28T04:54:40.938Z,9.90
2022-09-28T04:57:12.240Z,9.17
2022-09-28T04:59:43.717Z,9.10
2022-09-28T05:02:15.175Z,11.67
2022-09-28T05:04:46.644Z,10.37
2022-09-28T05:07:17.877Z,9.63
2022-09-28T05:09:49.172Z,12.63
2022-09-28T05:12:21.412Z,11.40
2022-09-28T05:14:52.666Z,12.77
2022-09-28T05:17:23.905Z,13.27
2022-09-28T05:19:55.149Z,17.40
2022-09-28T05:22:26.437Z,13.87
2022-09-28T05:24:59.016Z,17.90
2022-09-28T05:27:30.354Z,11.27
2022-09-28T05:30:01.729Z,12.10
2022-09-28T05:32:32.972Z,13.70
2022-09-28T05:35:06.178Z,11.93
2022-09-28T05:37:38.601Z,11.70
2022-09-28T05:40:10.660Z,9.60
2022-09-28T05:42:42.124Z,12.13
2022-09-28T05:45:13.493Z,14.00
2022-09-28T05:47:46.129Z,14.07
2022-09-28T05:50:17.530Z,10.10
2022-09-28T05:52:57.619Z,15.73
2022-09-28T05:55:29.663Z,11.50
2022-09-28T05:58:02.763Z,8.60
2022-09-28T06:00:35.723Z,12.87
2022-09-28T06:03:11.083Z,17.03
2022-09-28T06:05:42.372Z,13.25
2022-09-28T06:08:13.960Z,10.23
2022-09-28T06:10:45.389Z,13.57
2022-09-28T06:13:16.763Z,17.47
2022-09-28T06:15:48.083Z,13.00
2022-09-28T06:18:19.338Z,16.87
2022-09-28T06:20:50.600Z,11.80
2022-09-28T06:23:21.841Z,17.70
2022-09-28T06:25:53.068Z,15.23
2022-09-28T06:28:24.803Z,14.90
2022-09-28T06:30:56.094Z,12.23
2022-09-28T06:33:27.516Z,12.03
2022-09-28T06:35:59.539Z,13.73
2022-09-28T06:38:30.782Z,13.77
2022-09-28T06:41:02.080Z,11.30
2022-09-28T06:43:34.921Z,13.93
2022-09-28T06:46:08.443Z,13.57
2022-09-28T06:48:40.293Z,13.07
2022-09-28T06:51:11.619Z,15.50
2022-09-28T06:53:42.877Z,12.57
2022-09-28T06:56:14.357Z,13.23
2022-09-28T06:58:45.598Z,13.97
2022-09-28T07:01:16.976Z,13.30
2022-09-28T07:03:51.442Z,10.13
2022-09-28T07:06:26.613Z,15.20
2022-09-28T07:09:19.424Z,10.07
2022-09-28T07:11:52.559Z,12.83
2022-09-28T07:14:40.480Z,14.33
2022-09-28T07:17:16.448Z,11.43
2022-09-28T07:19:52.603Z,17.53
2022-09-28T07:22:39.030Z,10.77
2022-09-28T07:25:14.174Z,21.07
2022-09-28T07:27:47.015Z,14.00
2022-09-28T07:30:18.343Z,11.60
2022-09-28T07:32:49.599Z,17.43
2022-09-28T07:35:21.020Z,14.63
2022-09-28T07:38:00.316Z,13.57
2022-09-28T07:40:52.002Z,14.33
2022-09-28T07:43:23.686Z,11.50
2022-09-28T07:45:55.605Z,14.00
2022-09-28T07:48:26.927Z,12.13
2022-09-28T07:51:00.099Z,13.20
2022-09-28T07:53:31.683Z,8.03
2022-09-28T07:56:06.947Z,11.73
2022-09-28T07:58:39.400Z,8.75
2022-09-28T08:01:11.840Z,13.30
2022-09-28T08:03:47.966Z,11.20
2022-09-28T08:06:19.726Z,10.70
2022-09-28T08:08:52.745Z,12.07
2022-09-28T08:11:23.994Z,9.43
2022-09-28T08:13:55.344Z,10.67
2022-09-28T08:16:27.767Z,9.90
2022-09-28T08:18:59.106Z,8.93
2022-09-28T08:21:45.669Z,11.33
2022-09-28T08:24:17.984Z,7.57
2022-09-28T08:26:49.361Z,7.77
2022-09-28T08:29:20.646Z,10.63
2022-09-28T08:31:51.880Z,9.13
2022-09-28T08:34:23.165Z,9.03
2022-09-28T08:36:57.704Z,9.70
2022-09-28T08:39:29.053Z,10.53
2022-09-28T08:42:15.645Z,8.50
2022-09-28T08:44:55.681Z,11.45
2022-09-28T08:48:03.877Z,9.00
2022-09-28T08:50:51.242Z,9.43
2022-09-28T08:53:35.043Z,8.90
2022-09-28T08:56:14.752Z,8.47
2022-09-28T08:58:54.663Z,9.60
2022-09-28T09:01:31.358Z,8.13
2022-09-28T09:04:05.427Z,10.43
2022-09-28T09:06:45.131Z,11.73
2022-09-28T09:09:34.728Z,11.17
2022-09-28T09:12:41.413Z,9.53
2022-09-28T09:15:18.696Z,9.80
2022-09-28T09:18:22.318Z,10.40
2022-09-28T09:20:59.681Z,10.33
2022-09-28T09:23:39.056Z,10.37
2022-09-28T09:26:22.536Z,9.93
2022-09-28T09:29:23.759Z,9.33
2022-09-28T09:31:55.090Z,9.23
2022-09-28T09:34:46.486Z,9.43
2022-09-28T09:37:58.522Z,10.07
2022-09-28T09:40:52.807Z,10.80
2022-09-28T09:43:49.194Z,9.87
2022-09-28T09:46:44.261Z,9.23
2022-09-28T09:49:26.791Z,9.30
2022-09-28T09:52:18.679Z,8.70
2022-09-28T09:54:59.340Z,8.70
2022-09-28T09:57:40.848Z,8.97
2022-09-28T10:00:14.282Z,9.60
2022-09-28T10:02:48.173Z,9.80
2022-09-28T10:05:27.688Z,9.67
2022-09-28T10:08:15.474Z,9.40
2022-09-28T10:10:51.413Z,9.77
2022-09-28T10:13:23.177Z,9.23
2022-09-28T10:15:55.429Z,10.87
2022-09-28T10:18:27.710Z,10.20
2022-09-28T10:21:00.079Z,9.83
2022-09-28T10:23:35.921Z,9.83
2022-09-28T10:26:13.446Z,10.95
2022-09-28T10:28:58.782Z,10.53
2022-09-28T10:31:39.191Z,9.37
2022-09-28T10:34:16.954Z,9.43
2022-09-28T10:37:05.337Z,9.60
2022-09-28T10:39:46.000Z,9.30
2022-09-28T10:42:28.540Z,9.93
2022-09-28T10:45:07.073Z,8.13
2022-09-28T10:47:42.882Z,9.30
2022-09-28T10:50:22.513Z,9.02
2022-09-28T10:52:53.804Z,9.70
2022-09-28T10:55:36.750Z,9.63
2022-09-28T10:58:25.541Z,9.23
2022-09-28T11:01:04.961Z,9.03
2022-09-28T11:03:49.582Z,9.23
2022-09-28T11:06:29.781Z,8.13
2022-09-28T11:09:05.576Z,8.70
2022-09-28T11:11:41.556Z,8.70
2022-09-28T11:14:42.159Z,8.68
2022-09-28T11:17:27.739Z,8.77
2022-09-28T11:20:01.883Z,9.47
2022-09-28T11:22:33.079Z,8.50
2022-09-28T11:25:16.268Z,10.07
2022-09-28T11:27:50.592Z,10.10
2022-09-28T11:30:37.125Z,10.00
2022-09-28T11:36:10.683Z,9.40
2022-09-28T11:39:09.072Z,10.37
2022-09-28T11:42:07.561Z,9.70
2022-09-28T11:44:44.727Z,10.00
2022-09-28T11:47:34.340Z,10.33
2022-09-28T11:50:24.726Z,9.60
2022-09-28T11:53:22.858Z,9.23
2022-09-28T11:56:12.712Z,10.10
2022-09-28T11:58:51.679Z,9.47
2022-09-28T12:01:40.108Z,10.73
2022-09-28T12:04:18.362Z,9.37
2022-09-28T12:06:55.585Z,10.67
2022-09-28T12:09:41.275Z,9.67
2022-09-28T12:12:32.298Z,10.55
2022-09-28T12:15:21.671Z,9.27
2022-09-28T12:18:00.129Z,9.40
2022-09-28T12:20:38.273Z,9.77
2022-09-28T12:23:21.073Z,9.30
2022-09-28T12:26:00.501Z,10.07
2022-09-28T12:28:56.768Z,9.23
2022-09-28T12:31:54.552Z,9.82
2022-09-28T12:34:26.109Z,9.67
2022-09-28T12:37:12.852Z,9.77
2022-09-28T12:40:08.862Z,9.97
2022-09-28T12:42:47.617Z,9.57
2022-09-28T12:46:11.682Z,9.03
2022-09-28T12:49:21.703Z,9.00
2022-09-28T12:51:54.311Z,8.97
2022-09-28T12:54:25.563Z,9.20
2022-09-28T12:57:18.493Z,8.40
2022-09-28T13:00:08.055Z,8.23
2022-09-28T13:03:06.580Z,8.20
2022-09-28T13:06:15.816Z,8.50
2022-09-28T13:09:14.861Z,8.00
2022-09-28T13:11:58.689Z,8.50
2022-09-28T13:15:08.690Z,7.43
2022-09-28T13:17:45.737Z,8.40
2022-09-28T13:20:32.260Z,7.90
2022-09-28T13:23:19.411Z,7.80
2022-09-28T13:26:10.872Z,8.53
2022-09-28T13:28:43.494Z,8.97
2022-09-28T13:31:20.232Z,7.70
2022-09-28T13:33:53.644Z,8.20
2022-09-28T13:36:24.908Z,8.10
2022-09-28T13:38:59.274Z,7.17
2022-09-28T13:41:40.280Z,7.23
2022-09-28T13:44:12.255Z,6.90
2022-09-28T13:47:13.037Z,7.00
2022-09-28T13:50:17.682Z,6.20
2022-09-28T13:53:01.208Z,6.20
2022-09-28T13:55:46.984Z,6.80
2022-09-28T13:58:51.932Z,6.05
2022-09-28T14:01:30.296Z,5.80
2022-09-28T14:04:23.981Z,6.27
2022-09-28T14:07:08.406Z,5.83
2022-09-28T14:10:07.738Z,5.77
2022-09-28T14:12:38.947Z,6.30
2022-09-28T14:15:28.548Z,5.80
2022-09-28T14:18:11.930Z,5.30
2022-09-28T14:20:57.472Z,5.70
2022-09-28T14:23:45.844Z,5.03
2022-09-28T14:26:41.480Z,4.63
2022-09-28T14:29:34.309Z,4.50
2022-09-28T14:32:08.642Z,4.83
2022-09-28T14:34:46.700Z,5.87
2022-09-28T14:37:58.042Z,4.63
2022-09-28T14:41:10.308Z,5.37
2022-09-28T14:43:44.339Z,4.33
2022-09-28T14:46:17.084Z,4.93
2022-09-28T14:49:01.654Z,4.80
2022-09-28T14:51:34.892Z,4.53
2022-09-28T14:54:12.221Z,4.70
2022-09-28T14:57:15.207Z,4.73
2022-09-28T14:59:47.686Z,4.80
2022-09-28T15:02:33.000Z,4.63
2022-09-28T15:05:22.887Z,4.00
2022-09-28T15:07:55.015Z,4.73
2022-09-28T15:10:36.602Z,4.63
2022-09-28T15:13:28.390Z,5.47
2022-09-28T15:16:06.444Z,4.30
2022-09-28T15:19:18.593Z,4.40
2022-09-28T15:21:51.149Z,4.03
2022-09-28T15:24:34.893Z,4.87
2022-09-28T15:27:18.844Z,4.37
2022-09-28T15:29:57.496Z,5.43
2022-09-28T15:32:31.629Z,5.93
2022-09-28T15:35:14.398Z,5.77
2022-09-28T15:37:49.576Z,6.07
2022-09-28T15:40:33.306Z,4.60
2022-09-28T15:43:26.890Z,4.87
2022-09-28T15:46:05.996Z,5.23
2022-09-28T15:48:51.804Z,4.60
2022-09-28T15:51:24.418Z,5.15
2022-09-28T15:54:04.464Z,4.27
2022-09-28T15:56:59.926Z,4.70
2022-09-28T15:59:39.606Z,4.83
2022-09-28T16:02:20.624Z,5.53
2022-09-28T16:04:55.127Z,4.80
2022-09-28T16:07:56.556Z,5.60
2022-09-28T16:10:33.947Z,5.07
2022-09-28T16:13:17.853Z,4.70
2022-09-28T16:15:57.941Z,4.47
2022-09-28T16:18:32.321Z,5.67
2022-09-28T16:21:28.904Z,5.20
2022-09-28T16:24:00.493Z,4.93
2022-09-28T16:26:38.877Z,6.37
2022-09-28T16:29:32.561Z,5.40
2022-09-28T16:32:35.313Z,5.30
2022-09-28T16:35:10.090Z,7.50
2022-09-28T16:37:42.504Z,8.23
2022-09-28T16:40:13.845Z,7.17
2022-09-28T16:42:49.060Z,5.50
2022-09-28T16:45:23.696Z,5.15
2022-09-28T16:47:57.344Z,5.43
2022-09-28T16:50:28.668Z,7.10
2022-09-28T16:53:38.803Z,5.47
2022-09-28T16:56:11.359Z,4.77
2022-09-28T16:58:42.729Z,6.20
2022-09-28T17:01:14.780Z,5.83
2022-09-28T17:03:47.339Z,5.60
2022-09-28T17:06:21.690Z,5.80
2022-09-28T17:08:58.270Z,5.50
2022-09-28T17:11:29.522Z,6.10
2022-09-28T17:14:03.736Z,7.47
2022-09-28T17:17:07.406Z,8.80
2022-09-28T17:19:28.683Z,7.83
2022-09-28T17:21:59.933Z,8.23
2022-09-28T17:24:31.179Z,9.60
2022-09-28T17:27:04.112Z,11.03
2022-09-28T17:29:35.357Z,9.27
2022-09-28T17:32:16.825Z,9.73
2022-09-28T17:34:55.791Z,11.73
2022-09-28T17:37:38.400Z,8.30
2022-09-28T17:40:28.141Z,8.03
2022-09-28T17:43:00.399Z,7.83
2022-09-28T17:45:33.380Z,7.60
2022-09-28T17:48:14.132Z,8.00
2022-09-28T17:50:47.581Z,12.80
2022-09-28T17:53:19.565Z,8.73
2022-09-28T17:55:51.332Z,7.70
2022-09-28T17:58:22.983Z,7.17
2022-09-28T18:00:54.231Z,7.87
2022-09-28T18:03:25.794Z,7.80
2022-09-28T18:06:12.978Z,8.10
2022-09-28T18:08:44.410Z,8.33
2022-09-28T18:11:17.296Z,8.43
2022-09-28T18:13:48.607Z,10.47
2022-09-28T18:16:20.349Z,9.87
2022-09-28T18:18:51.777Z,9.60
2022-09-28T18:21:23.230Z,7.30
2022-09-28T18:23:54.544Z,6.93
2022-09-28T18:26:25.926Z,6.83
2022-09-28T18:28:57.237Z,6.07
2022-09-28T18:31:28.626Z,5.47
2022-09-28T18:34:00.889Z,6.30
2022-09-28T18:36:35.555Z,5.27
2022-09-28T18:39:07.017Z,5.27
2022-09-28T18:41:38.582Z,4.73
2022-09-28T18:44:10.389Z,5.13
2022-09-28T18:46:42.539Z,4.93
2022-09-28T18:49:13.846Z,10.23
2022-09-28T18:51:45.141Z,8.23
2022-09-28T18:54:16.979Z,9.57
2022-09-28T18:56:51.077Z,7.87
2022-09-28T18:59:23.247Z,8.57
2022-09-28T19:01:54.764Z,7.07
2022-09-28T19:04:26.162Z,6.37
2022-09-28T19:06:57.505Z,6.87
2022-09-28T19:09:28.749Z,6.87
2022-09-28T19:12:00.754Z,6.27
2022-09-28T19:14:32.028Z,7.10
2022-09-28T19:17:04.224Z,7.43
2022-09-28T19:19:35.727Z,6.73
2022-09-28T19:22:07.042Z,5.43
2022-09-28T19:24:38.353Z,6.03
2022-09-28T19:27:09.671Z,6.50
2022-09-28T19:29:40.989Z,5.63
2022-09-28T19:32:12.593Z,6.37
2022-09-28T19:34:43.876Z,5.30
2022-09-28T19:37:15.258Z,4.40
2022-09-28T19:39:46.634Z,5.60
2022-09-28T19:42:17.877Z,6.00
2022-09-28T19:44:49.158Z,4.93
2022-09-28T19:47:21.597Z,3.57
2022-09-28T19:49:52.992Z,3.90
2022-09-28T19:52:24.285Z,4.00
2022-09-28T19:54:56.777Z,3.60
2022-09-28T19:57:31.624Z,3.73
2022-09-28T20:00:04.261Z,3.93
2022-09-28T20:02:35.596Z,3.73
2022-09-28T20:05:07.386Z,3.80
2022-09-28T20:07:39.701Z,4.60
2022-09-28T20:10:11.893Z,4.53
2022-09-28T20:12:43.222Z,4.50
2022-09-28T20:15:14.582Z,5.70
2022-09-28T20:17:45.881Z,4.57
2022-09-28T20:20:18.152Z,3.50
2022-09-28T20:22:49.393Z,3.40
2022-09-28T20:25:20.777Z,4.33
2022-09-28T20:27:52.120Z,4.30
2022-09-28T20:30:24.186Z,4.23
2022-09-28T20:32:55.545Z,4.33
2022-09-28T20:35:33.046Z,4.47
2022-09-28T20:38:08.940Z,4.40
2022-09-28T20:40:41.889Z,3.80
2022-09-28T20:43:14.429Z,3.33
2022-09-28T20:45:45.746Z,4.13
2022-09-28T20:48:17.015Z,4.97
2022-09-28T20:50:48.284Z,4.57
2022-09-28T20:53:19.530Z,4.40
2022-09-28T20:55:58.115Z,4.20
2022-09-28T20:58:29.852Z,4.73
2022-09-28T21:01:11.925Z,5.40
2022-09-28T21:03:51.511Z,6.37
2022-09-28T21:06:31.055Z,5.43
2022-09-28T21:09:03.907Z,6.60
2022-09-28T21:11:40.056Z,6.03
2022-09-28T21:14:11.525Z,6.18
2022-09-28T21:16:42.749Z,6.63
2022-09-28T21:19:14.017Z,7.23
2022-09-28T21:21:45.417Z,6.70
2022-09-28T21:24:16.811Z,6.07
2022-09-28T21:26:48.282Z,5.30
2022-09-28T21:29:19.778Z,6.37
2022-09-28T21:31:51.138Z,5.97
2022-09-28T21:34:22.392Z,5.97
2022-09-28T21:36:54.353Z,5.53
2022-09-28T21:39:26.122Z,5.77
2022-09-28T21:41:57.364Z,5.60
2022-09-28T21:44:28.607Z,5.70
2022-09-28T21:46:59.956Z,5.70
2022-09-28T21:49:31.201Z,5.87
2022-09-28T21:52:02.489Z,6.73
2022-09-28T21:54:37.149Z,5.13
2022-09-28T21:57:09.565Z,5.63
2022-09-28T21:59:40.899Z,7.30
2022-09-28T22:02:12.278Z,6.43
2022-09-28T22:04:43.553Z,6.53
2022-09-28T22:07:14.857Z,6.07
2022-09-28T22:09:48.529Z,5.07
2022-09-28T22:12:21.725Z,5.22
2022-09-28T22:14:52.974Z,5.50
2022-09-28T22:17:24.687Z,5.00
2022-09-28T22:19:55.985Z,5.93
2022-09-28T22:22:29.158Z,5.27
2022-09-28T22:25:00.977Z,5.30
2022-09-28T22:27:32.324Z,5.13
2022-09-28T22:30:03.939Z,6.57
2022-09-28T22:32:35.189Z,6.63
2022-09-28T22:35:07.064Z,5.80
2022-09-28T22:37:38.354Z,5.67
2022-09-28T22:40:12.605Z,5.27
2022-09-28T22:42:43.974Z,4.90
2022-09-28T22:45:15.220Z,5.17
2022-09-28T22:47:46.564Z,4.60
2022-09-28T22:50:17.928Z,5.33
2022-09-28T22:52:49.213Z,5.53
2022-09-28T22:55:20.457Z,4.83
2022-09-28T22:57:51.715Z,4.70
2022-09-28T23:00:22.948Z,4.77
2022-09-28T23:02:54.264Z,6.30
2022-09-28T23:05:25.558Z,6.10
2022-09-28T23:07:56.825Z,4.80
2022-09-28T23:10:28.182Z,4.73
2022-09-28T23:12:59.550Z,4.90
2022-09-28T23:15:30.851Z,4.23
2022-09-28T23:18:02.076Z,5.47
2022-09-28T23:20:33.349Z,4.60
2022-09-28T23:23:04.690Z,6.47
2022-09-28T23:25:36.018Z,6.10
2022-09-28T23:28:07.288Z,8.10
2022-09-28T23:30:39.170Z,6.90
2022-09-28T23:33:14.369Z,5.53
2022-09-28T23:35:46.216Z,5.40
2022-09-28T23:38:18.240Z,5.97
2022-09-28T23:40:49.673Z,5.50
2022-09-28T23:43:21.037Z,5.80
2022-09-28T23:45:52.465Z,6.33
2022-09-28T23:48:23.707Z,5.73
2022-09-28T23:50:55.003Z,5.77
2022-09-28T23:53:26.523Z,7.37
2022-09-28T23:55:57.880Z,6.53
2022-09-28T23:58:29.199Z,8.10
